SBRF/REC METAR and TAF weather

Enter ICAO airport designator
Station Type Date Time Source
SBRF METAR 2021/10/24 22:00 UTC NOAA

SBRF 242200Z 06006KT 9999 FEW023 28/22 Q1014


Station Type Date Time Source
SBRF Decoded METAR 2021/10/24 22:00 UTC NOAA

Recife Aeroporto , Brazil (SBRF) 08-04S 034-51W
Oct 24, 2021 - 06:00 PM EDT / 2021.10.24 2200 UTC
Wind: from the ENE (060 degrees) at 7 MPH (6 KT):0
Visibility: greater than 7 mile(s):0
Sky conditions: mostly clear
Temperature: 82 F (28 C)
Dew Point: 71 F (22 C)
Relative Humidity: 69%
Pressure (altimeter): 29.94 in. Hg (1014 hPa)
ob: SBRF 242200Z 06006KT 9999 FEW023 28/22 Q1014
cycle: 22

Station Type Date Time Source
SBRF TAF 2021/10/24 18:10 UTC NOAA

TAF SBRF 241500Z 2418/2518 08010KT 9999 SCT020 TN26/2507Z TX30/2516Z
RMK PHD

Example: see airport list